Time;durP1;ratioP1;P1;durP2;ratioP2;P2;SDS_P1;SDS_P2;PMS_P1;PMS_P2;Temp;Humidity;BMP_temperature;BMP_pressure;BME280_temperature;BME280_humidity;BME280_pressure;Samples;Min_cycle;Max_cycle;Signal;HPM_P1;HPM_P2
2023/06/21 00:01:27;;;;;;;10.30;7.47;;;;;;;;;;5031257;28;20226;-77
2023/06/21 00:03:57;;;;;;;7.82;7.03;;;;;;;;;;5030652;28;20241;-77
2023/06/21 00:06:25;;;;;;;8.27;7.15;;;;;;;;;;5018901;28;20242;-78
2023/06/21 00:08:52;;;;;;;7.68;6.97;;;;;;;;;;5010943;28;20231;-78
2023/06/21 00:11:20;;;;;;;9.85;7.20;;;;;;;;;;5015593;28;20238;-77
2023/06/21 00:13:47;;;;;;;10.93;7.10;;;;;;;;;;5015101;28;20226;-78
2023/06/21 00:16:14;;;;;;;9.38;8.02;;;;;;;;;;5015700;28;20222;-77
2023/06/21 00:18:41;;;;;;;9.95;7.55;;;;;;;;;;5015212;28;20650;-77
2023/06/21 00:21:08;;;;;;;9.15;7.07;;;;;;;;;;5015613;28;20227;-78
2023/06/21 00:23:36;;;;;;;11.88;6.93;;;;;;;;;;5014944;28;20219;-78
2023/06/21 00:26:04;;;;;;;10.65;8.05;;;;;;;;;;5015183;28;20211;-79
2023/06/21 00:28:31;;;;;;;9.45;7.50;;;;;;;;;;5032266;28;20257;-78
2023/06/21 00:30:58;;;;;;;8.52;7.40;;;;;;;;;;5034660;28;20226;-78
2023/06/21 00:33:25;;;;;;;13.60;7.60;;;;;;;;;;5034416;28;20249;-78
2023/06/21 00:35:52;;;;;;;9.05;7.68;;;;;;;;;;5034593;28;20217;-78
2023/06/21 00:38:20;;;;;;;11.23;6.85;;;;;;;;;;5034809;28;20198;-78
2023/06/21 00:40:49;;;;;;;10.68;7.05;;;;;;;;;;5034020;28;20249;-78
2023/06/21 00:43:17;;;;;;;8.98;7.47;;;;;;;;;;5034032;28;20666;-77
2023/06/21 00:45:48;;;;;;;8.05;7.15;;;;;;;;;;5033981;28;20230;-78
2023/06/21 00:48:15;;;;;;;11.85;8.23;;;;;;;;;;5034330;28;20195;-77
2023/06/21 00:50:42;;;;;;;12.07;8.00;;;;;;;;;;5033779;28;20875;-78
2023/06/21 00:53:09;;;;;;;8.73;7.13;;;;;;;;;;5025664;28;20260;-78
2023/06/21 00:55:40;;;;;;;9.82;7.43;;;;;;;;;;5033559;28;20237;-78
2023/06/21 00:58:09;;;;;;;10.85;7.85;;;;;;;;;;5033408;28;20696;-77
2023/06/21 01:00:37;;;;;;;11.48;8.50;;;;;;;;;;5033577;28;20729;-77
2023/06/21 01:03:04;;;;;;;12.93;7.95;;;;;;;;;;5034257;28;20209;-78
2023/06/21 01:05:33;;;;;;;12.82;8.50;;;;;;;;;;5030829;28;20243;-78
2023/06/21 01:08:03;;;;;;;9.05;8.15;;;;;;;;;;5036795;28;20201;-78
2023/06/21 01:10:39;;;;;;;9.15;7.68;;;;;;;;;;5033497;28;20242;-78
2023/06/21 01:13:13;;;;;;;9.60;8.10;;;;;;;;;;5034107;28;20648;-77
2023/06/21 01:15:42;;;;;;;10.75;8.68;;;;;;;;;;5015323;28;20241;-77
2023/06/21 01:18:11;;;;;;;8.50;7.47;;;;;;;;;;5033890;28;20624;-78
2023/06/21 01:20:39;;;;;;;11.95;8.18;;;;;;;;;;5033127;28;20230;-78
2023/06/21 01:23:18;;;;;;;10.65;8.43;;;;;;;;;;5034045;28;20207;-77
2023/06/21 01:25:57;;;;;;;10.02;8.68;;;;;;;;;;4996302;28;20224;-77
2023/06/21 01:28:32;;;;;;;9.15;7.93;;;;;;;;;;5013535;28;20214;-77
2023/06/21 01:31:02;;;;;;;8.95;7.90;;;;;;;;;;5013820;28;20705;-77
2023/06/21 01:33:30;;;;;;;8.68;7.03;;;;;;;;;;5013416;28;20211;-77
2023/06/21 01:35:57;;;;;;;12.50;7.72;;;;;;;;;;5013516;28;20207;-77
2023/06/21 01:38:24;;;;;;;11.07;7.65;;;;;;;;;;5013158;28;20211;-77
2023/06/21 01:40:51;;;;;;;10.75;7.55;;;;;;;;;;5013717;28;20236;-77
2023/06/21 01:43:19;;;;;;;11.80;7.68;;;;;;;;;;5013987;28;20587;-77
2023/06/21 01:45:46;;;;;;;8.73;7.45;;;;;;;;;;5013017;28;20228;-77
2023/06/21 01:48:15;;;;;;;12.43;7.28;;;;;;;;;;5009539;28;20234;-78
2023/06/21 01:50:43;;;;;;;9.93;7.65;;;;;;;;;;5032786;28;20242;-77
2023/06/21 01:53:13;;;;;;;10.23;7.53;;;;;;;;;;5027217;28;20203;-78
2023/06/21 01:55:41;;;;;;;13.45;8.00;;;;;;;;;;5032132;28;20284;-78
2023/06/21 01:58:10;;;;;;;11.40;8.23;;;;;;;;;;5033625;28;20214;-78
2023/06/21 02:00:37;;;;;;;12.32;7.82;;;;;;;;;;5032777;28;20231;-78
2023/06/21 02:03:06;;;;;;;9.18;7.72;;;;;;;;;;5033486;28;20214;-78
2023/06/21 02:05:35;;;;;;;11.35;7.82;;;;;;;;;;5040673;28;20229;-78
2023/06/21 02:08:04;;;;;;;12.07;8.13;;;;;;;;;;5053188;28;20206;-77
2023/06/21 02:10:31;;;;;;;9.45;8.07;;;;;;;;;;5052641;28;20234;-78
2023/06/21 02:12:59;;;;;;;8.77;7.70;;;;;;;;;;5052989;28;20214;-77
2023/06/21 02:15:26;;;;;;;10.57;8.38;;;;;;;;;;5052398;28;20241;-78
2023/06/21 02:17:53;;;;;;;9.48;8.30;;;;;;;;;;5052738;28;20214;-78
2023/06/21 02:20:22;;;;;;;8.77;7.88;;;;;;;;;;5052641;28;20367;-78
2023/06/21 02:22:50;;;;;;;10.15;8.07;;;;;;;;;;5052790;28;20222;-78
2023/06/21 02:25:18;;;;;;;11.50;8.38;;;;;;;;;;5045571;28;20227;-78
2023/06/21 02:27:45;;;;;;;10.32;9.07;;;;;;;;;;5032517;28;20230;-78
2023/06/21 02:30:12;;;;;;;11.23;8.63;;;;;;;;;;5027523;28;20230;-78
2023/06/21 02:32:39;;;;;;;12.98;8.25;;;;;;;;;;5031884;28;20231;-78
2023/06/21 02:35:07;;;;;;;13.10;8.50;;;;;;;;;;5032162;28;20218;-78
2023/06/21 02:37:34;;;;;;;8.70;7.72;;;;;;;;;;5032663;28;20206;-78
2023/06/21 02:40:09;;;;;;;10.52;8.40;;;;;;;;;;5031903;28;20223;-77
2023/06/21 02:42:36;;;;;;;9.45;8.50;;;;;;;;;;5035475;28;20955;-78
2023/06/21 02:45:03;;;;;;;9.65;8.65;;;;;;;;;;5033020;28;20320;-78
2023/06/21 02:47:31;;;;;;;13.18;8.57;;;;;;;;;;5032022;28;20221;-78
2023/06/21 02:49:58;;;;;;;12.13;8.32;;;;;;;;;;5032077;28;20945;-78
2023/06/21 02:52:25;;;;;;;15.68;8.38;;;;;;;;;;5074525;22;20231;-80
2023/06/21 02:54:52;;;;;;;13.57;8.50;;;;;;;;;;5020757;28;20232;-83
2023/06/21 02:57:21;;;;;;;11.60;8.02;;;;;;;;;;5015566;28;20693;-82
2023/06/21 02:59:48;;;;;;;12.45;8.50;;;;;;;;;;5008464;28;20227;-82
2023/06/21 03:02:16;;;;;;;14.32;9.38;;;;;;;;;;5001433;28;20651;-82
2023/06/21 03:04:43;;;;;;;16.98;8.52;;;;;;;;;;4984923;28;20256;-82
2023/06/21 03:07:10;;;;;;;14.82;8.80;;;;;;;;;;4970613;28;20209;-83
2023/06/21 03:09:37;;;;;;;10.98;7.80;;;;;;;;;;4964956;28;20228;-82
2023/06/21 03:12:07;;;;;;;14.25;10.02;;;;;;;;;;4961632;28;20536;-82
2023/06/21 03:14:37;;;;;;;13.02;9.18;;;;;;;;;;4961863;28;20672;-82
2023/06/21 03:17:04;;;;;;;12.32;8.48;;;;;;;;;;4964454;28;20229;-82
2023/06/21 03:19:31;;;;;;;8.30;7.50;;;;;;;;;;4961677;28;20253;-82
2023/06/21 03:21:58;;;;;;;11.00;7.30;;;;;;;;;;4964357;28;20333;-82
2023/06/21 03:24:26;;;;;;;12.05;8.45;;;;;;;;;;4962522;28;20237;-83
2023/06/21 03:26:53;;;;;;;10.95;7.75;;;;;;;;;;4968045;28;20213;-82
2023/06/21 03:29:21;;;;;;;10.82;7.50;;;;;;;;;;4961464;28;20229;-83
2023/06/21 03:31:50;;;;;;;12.27;7.90;;;;;;;;;;4966043;28;20267;-83
2023/06/21 03:34:17;;;;;;;11.07;8.38;;;;;;;;;;4961613;28;20240;-82
2023/06/21 03:36:44;;;;;;;9.98;8.00;;;;;;;;;;4962028;28;20220;-83
2023/06/21 03:39:11;;;;;;;11.40;7.70;;;;;;;;;;4961388;28;20726;-83
2023/06/21 03:41:38;;;;;;;13.73;7.60;;;;;;;;;;4956999;28;20244;-83
2023/06/21 03:44:05;;;;;;;15.65;8.00;;;;;;;;;;4961654;28;20249;-82
2023/06/21 03:46:32;;;;;;;12.45;8.80;;;;;;;;;;4964736;28;20215;-83
2023/06/21 03:49:01;;;;;;;16.52;8.38;;;;;;;;;;4963283;28;20258;-83
2023/06/21 03:51:28;;;;;;;13.25;8.13;;;;;;;;;;4961932;28;20296;-82
2023/06/21 03:53:55;;;;;;;10.95;7.45;;;;;;;;;;4962178;28;20237;-82
2023/06/21 03:56:22;;;;;;;10.77;7.57;;;;;;;;;;4968481;28;20217;-82
2023/06/21 03:58:49;;;;;;;15.73;8.00;;;;;;;;;;4962516;28;20237;-82
2023/06/21 04:01:17;;;;;;;10.10;7.47;;;;;;;;;;4965179;28;20236;-82
2023/06/21 04:03:44;;;;;;;8.73;7.05;;;;;;;;;;4964808;28;20240;-82
2023/06/21 04:06:12;;;;;;;10.30;7.03;;;;;;;;;;4961735;28;20232;-82
2023/06/21 04:08:39;;;;;;;11.75;7.93;;;;;;;;;;4959750;28;20236;-82
2023/06/21 04:11:06;;;;;;;10.98;7.60;;;;;;;;;;4962734;28;20594;-81
2023/06/21 04:13:34;;;;;;;13.52;7.97;;;;;;;;;;4967168;28;20749;-81
2023/06/21 04:16:01;;;;;;;9.13;7.28;;;;;;;;;;4962985;28;20205;-82
2023/06/21 04:18:28;;;;;;;16.33;8.05;;;;;;;;;;4961271;28;20217;-82
2023/06/21 04:20:55;;;;;;;9.70;7.13;;;;;;;;;;4962205;28;20239;-81
2023/06/21 04:23:26;;;;;;;13.43;7.20;;;;;;;;;;4964366;28;20276;-81
2023/06/21 04:25:53;;;;;;;12.85;7.68;;;;;;;;;;4963828;28;20228;-82
2023/06/21 04:28:24;;;;;;;11.90;7.40;;;;;;;;;;4960961;28;20210;-82
2023/06/21 04:30:51;;;;;;;14.63;8.13;;;;;;;;;;4960938;28;20607;-81
2023/06/21 04:33:18;;;;;;;13.77;8.55;;;;;;;;;;4964059;28;20740;-81
2023/06/21 04:35:45;;;;;;;10.80;7.93;;;;;;;;;;4959922;28;20209;-81
2023/06/21 04:38:13;;;;;;;8.93;7.75;;;;;;;;;;4966779;28;20209;-82
2023/06/21 04:40:41;;;;;;;13.65;7.55;;;;;;;;;;4959140;28;20243;-82
2023/06/21 04:43:09;;;;;;;10.52;7.95;;;;;;;;;;4962149;28;20229;-82
2023/06/21 04:45:36;;;;;;;11.40;7.65;;;;;;;;;;4964518;28;20233;-82
2023/06/21 04:48:04;;;;;;;11.18;8.20;;;;;;;;;;4955301;28;20237;-82
2023/06/21 04:50:32;;;;;;;12.82;8.15;;;;;;;;;;4962116;28;20228;-82
2023/06/21 04:52:59;;;;;;;12.00;7.88;;;;;;;;;;4963124;28;20234;-81
2023/06/21 04:55:26;;;;;;;17.00;7.97;;;;;;;;;;4967932;28;20232;-81
2023/06/21 04:57:55;;;;;;;9.73;7.53;;;;;;;;;;4967846;28;20201;-81
2023/06/21 05:00:22;;;;;;;10.02;7.75;;;;;;;;;;4962616;28;20691;-81
2023/06/21 05:02:49;;;;;;;11.10;8.13;;;;;;;;;;4967404;28;20240;-80
2023/06/21 05:05:16;;;;;;;11.25;7.15;;;;;;;;;;4964079;28;20235;-82
2023/06/21 05:07:43;;;;;;;11.02;7.00;;;;;;;;;;4958501;28;20214;-80
2023/06/21 05:10:11;;;;;;;12.57;7.55;;;;;;;;;;4968110;28;20711;-79
2023/06/21 05:12:38;;;;;;;13.13;8.00;;;;;;;;;;4966251;28;20208;-81
2023/06/21 05:15:07;;;;;;;10.30;7.18;;;;;;;;;;4965378;28;20229;-81
2023/06/21 05:17:34;;;;;;;12.50;8.55;;;;;;;;;;4970986;28;20217;-81
2023/06/21 05:20:02;;;;;;;10.25;7.57;;;;;;;;;;4966194;28;20241;-84
2023/06/21 05:22:29;;;;;;;13.30;7.78;;;;;;;;;;4970863;28;20209;-81
2023/06/21 05:24:56;;;;;;;9.63;8.07;;;;;;;;;;4980705;28;20703;-81
2023/06/21 05:27:24;;;;;;;11.48;7.75;;;;;;;;;;4964470;28;20205;-80
2023/06/21 05:29:51;;;;;;;11.07;7.63;;;;;;;;;;4966701;28;20232;-80
2023/06/21 05:32:20;;;;;;;10.80;7.70;;;;;;;;;;4965187;28;20216;-80
2023/06/21 05:34:47;;;;;;;13.07;7.35;;;;;;;;;;4966162;28;20252;-80
2023/06/21 05:37:15;;;;;;;10.88;7.30;;;;;;;;;;4965698;28;20201;-80
2023/06/21 05:39:44;;;;;;;11.18;7.72;;;;;;;;;;4967853;28;20232;-80
2023/06/21 05:42:11;;;;;;;10.18;7.75;;;;;;;;;;4965588;28;20209;-80
2023/06/21 05:44:38;;;;;;;10.60;8.05;;;;;;;;;;4967718;28;20259;-80
2023/06/21 05:47:05;;;;;;;9.05;8.02;;;;;;;;;;4959796;28;20671;-79
2023/06/21 05:49:34;;;;;;;9.70;8.02;;;;;;;;;;4974031;28;20244;-79
2023/06/21 05:52:01;;;;;;;8.85;7.90;;;;;;;;;;4966500;28;20209;-79
2023/06/21 05:54:28;;;;;;;11.60;8.50;;;;;;;;;;4956654;28;20241;-79
2023/06/21 05:56:55;;;;;;;10.15;8.48;;;;;;;;;;4971499;28;20208;-79
2023/06/21 05:59:22;;;;;;;9.05;8.25;;;;;;;;;;4967273;28;20228;-79
2023/06/21 06:01:49;;;;;;;10.52;8.48;;;;;;;;;;4962202;28;20233;-79
2023/06/21 06:04:16;;;;;;;11.15;8.30;;;;;;;;;;4965739;28;20241;-80
2023/06/21 06:06:44;;;;;;;9.73;8.07;;;;;;;;;;4968062;28;20241;-80
2023/06/21 06:09:12;;;;;;;12.07;7.75;;;;;;;;;;4963919;28;20224;-79
2023/06/21 06:11:39;;;;;;;10.02;8.15;;;;;;;;;;4967764;28;20209;-79
2023/06/21 06:14:07;;;;;;;9.85;8.23;;;;;;;;;;4967517;28;20233;-79
2023/06/21 06:16:34;;;;;;;10.55;8.20;;;;;;;;;;4964509;28;20209;-78
2023/06/21 06:19:01;;;;;;;9.68;8.40;;;;;;;;;;4968769;28;20260;-78
2023/06/21 06:21:28;;;;;;;12.27;8.52;;;;;;;;;;4969827;28;20201;-79
2023/06/21 06:23:56;;;;;;;12.20;8.20;;;;;;;;;;4967138;28;20244;-80
2023/06/21 06:26:24;;;;;;;8.85;7.95;;;;;;;;;;4964119;28;20236;-81
2023/06/21 06:28:51;;;;;;;9.52;8.35;;;;;;;;;;4963365;28;20268;-81
2023/06/21 06:31:20;;;;;;;9.82;8.40;;;;;;;;;;4965025;28;20217;-80
2023/06/21 06:33:47;;;;;;;12.20;8.82;;;;;;;;;;4970514;28;20244;-80
2023/06/21 06:36:14;;;;;;;11.55;8.23;;;;;;;;;;4965212;28;20205;-80
2023/06/21 06:38:41;;;;;;;10.20;8.48;;;;;;;;;;4961274;28;20233;-80
2023/06/21 06:41:09;;;;;;;9.40;8.45;;;;;;;;;;4965646;28;20689;-79
2023/06/21 06:43:36;;;;;;;10.48;8.45;;;;;;;;;;4955840;28;20270;-79
2023/06/21 06:46:03;;;;;;;9.80;7.80;;;;;;;;;;4956073;29;20233;-80
2023/06/21 06:48:30;;;;;;;10.57;8.05;;;;;;;;;;4969984;28;20211;-79
2023/06/21 06:50:57;;;;;;;12.18;7.30;;;;;;;;;;4960235;28;20244;-79
2023/06/21 06:53:24;;;;;;;10.30;7.68;;;;;;;;;;4954800;28;20778;-79
2023/06/21 06:55:52;;;;;;;9.07;7.68;;;;;;;;;;4956016;28;20212;-79
2023/06/21 06:58:20;;;;;;;8.88;7.32;;;;;;;;;;4957906;28;20678;-80
2023/06/21 07:00:48;;;;;;;12.68;8.02;;;;;;;;;;4957279;28;20216;-79
2023/06/21 07:03:15;;;;;;;12.13;7.07;;;;;;;;;;4970242;28;20237;-77
2023/06/21 07:05:45;;;;;;;7.30;6.55;;;;;;;;;;4991765;28;20239;-76
2023/06/21 07:08:12;;;;;;;9.52;6.82;;;;;;;;;;4992451;28;20222;-76
2023/06/21 07:10:39;;;;;;;7.43;6.20;;;;;;;;;;4978379;28;20236;-76
2023/06/21 07:13:07;;;;;;;11.73;7.20;;;;;;;;;;4974617;28;20232;-76
2023/06/21 07:15:35;;;;;;;9.90;6.93;;;;;;;;;;4985115;28;20243;-77
2023/06/21 07:18:02;;;;;;;7.97;6.40;;;;;;;;;;4978730;28;20341;-76
2023/06/21 07:20:29;;;;;;;8.85;6.68;;;;;;;;;;4984891;28;20228;-76
2023/06/21 07:22:56;;;;;;;13.48;7.70;;;;;;;;;;4976377;28;20939;-76
2023/06/21 07:25:24;;;;;;;9.82;7.20;;;;;;;;;;4974227;28;20255;-76
2023/06/21 07:27:51;;;;;;;8.98;6.97;;;;;;;;;;4980797;28;20204;-76
2023/06/21 07:30:18;;;;;;;9.85;7.45;;;;;;;;;;4987418;28;20250;-76
2023/06/21 07:32:47;;;;;;;11.48;7.05;;;;;;;;;;4969729;28;20220;-76
2023/06/21 07:35:15;;;;;;;10.52;7.47;;;;;;;;;;4987482;28;20323;-77
2023/06/21 07:37:42;;;;;;;9.38;7.43;;;;;;;;;;4990516;28;20236;-76
2023/06/21 07:40:10;;;;;;;8.30;7.13;;;;;;;;;;4990216;28;20255;-76
2023/06/21 07:42:37;;;;;;;8.82;7.70;;;;;;;;;;4985701;28;20294;-76
2023/06/21 07:45:04;;;;;;;9.50;7.22;;;;;;;;;;4991007;28;20240;-76
2023/06/21 07:47:31;;;;;;;9.35;7.50;;;;;;;;;;4990898;28;20224;-76
2023/06/21 07:50:00;;;;;;;11.35;7.13;;;;;;;;;;4991083;28;20224;-76
2023/06/21 07:52:27;;;;;;;10.00;7.90;;;;;;;;;;4991556;28;20207;-76
2023/06/21 07:54:54;;;;;;;12.52;7.85;;;;;;;;;;4991052;28;20227;-76
2023/06/21 07:57:21;;;;;;;8.57;7.65;;;;;;;;;;4991215;28;20208;-76
2023/06/21 07:59:48;;;;;;;10.40;7.85;;;;;;;;;;4990813;28;20231;-76
2023/06/21 08:02:17;;;;;;;9.63;7.90;;;;;;;;;;4991858;28;20212;-76
2023/06/21 08:04:44;;;;;;;9.23;8.32;;;;;;;;;;4991238;28;20232;-77
2023/06/21 08:07:13;;;;;;;10.50;7.15;;;;;;;;;;4991789;28;20224;-77
2023/06/21 08:09:41;;;;;;;10.15;8.15;;;;;;;;;;4991049;28;20228;-77
2023/06/21 08:12:08;;;;;;;9.68;8.68;;;;;;;;;;4991659;28;20208;-78
2023/06/21 08:14:36;;;;;;;10.73;7.63;;;;;;;;;;4991140;28;20267;-78
2023/06/21 08:17:03;;;;;;;9.52;8.30;;;;;;;;;;4991489;28;20207;-78
2023/06/21 08:19:30;;;;;;;10.18;8.27;;;;;;;;;;4992902;28;20240;-78
2023/06/21 08:21:57;;;;;;;8.90;7.32;;;;;;;;;;4995506;28;20212;-78
2023/06/21 08:24:26;;;;;;;9.18;7.90;;;;;;;;;;4991087;28;20239;-78
2023/06/21 08:26:53;;;;;;;12.77;7.68;;;;;;;;;;4991497;28;20264;-78
2023/06/21 08:29:20;;;;;;;11.68;7.80;;;;;;;;;;4990938;28;20236;-78
2023/06/21 08:31:48;;;;;;;8.50;7.60;;;;;;;;;;4994617;28;20211;-79
2023/06/21 08:34:15;;;;;;;13.77;7.43;;;;;;;;;;4994522;28;20240;-78
2023/06/21 08:36:42;;;;;;;6.68;6.07;;;;;;;;;;4990473;28;20227;-77
2023/06/21 08:39:09;;;;;;;8.02;7.07;;;;;;;;;;4994708;28;20235;-77
2023/06/21 08:41:38;;;;;;;8.80;6.88;;;;;;;;;;4995477;28;20571;-77
2023/06/21 08:44:06;;;;;;;7.32;6.40;;;;;;;;;;4994661;28;20232;-77
2023/06/21 08:46:35;;;;;;;6.95;5.72;;;;;;;;;;4994684;28;20242;-77
2023/06/21 08:49:05;;;;;;;10.38;6.30;;;;;;;;;;4994533;28;20239;-77
2023/06/21 08:51:32;;;;;;;7.78;6.47;;;;;;;;;;4994418;28;20227;-77
2023/06/21 08:54:02;;;;;;;10.90;6.68;;;;;;;;;;4994697;28;20236;-81
2023/06/21 08:56:30;;;;;;;9.45;6.60;;;;;;;;;;4995165;28;20212;-80
2023/06/21 08:59:00;;;;;;;6.45;5.85;;;;;;;;;;4994702;28;20228;-81
2023/06/21 09:01:30;;;;;;;9.35;6.22;;;;;;;;;;4995426;28;20219;-82
2023/06/21 09:03:57;;;;;;;9.45;6.38;;;;;;;;;;4993355;28;20251;-82
2023/06/21 09:06:25;;;;;;;6.78;5.25;;;;;;;;;;4994153;28;20711;-81
2023/06/21 09:08:53;;;;;;;6.32;5.50;;;;;;;;;;4994352;28;20670;-81
2023/06/21 09:11:22;;;;;;;9.30;5.60;;;;;;;;;;4993666;28;20219;-81
2023/06/21 09:13:49;;;;;;;5.53;5.03;;;;;;;;;;4994234;28;20231;-81
2023/06/21 09:16:16;;;;;;;6.97;4.90;;;;;;;;;;4994331;28;20200;-82
2023/06/21 09:18:45;;;;;;;8.38;4.70;;;;;;;;;;4992434;28;20264;-83
2023/06/21 09:21:13;;;;;;;6.10;4.57;;;;;;;;;;4992922;28;20203;-82
2023/06/21 09:23:40;;;;;;;5.93;5.32;;;;;;;;;;4986149;28;20236;-81
2023/06/21 09:26:08;;;;;;;6.75;5.30;;;;;;;;;;4994390;28;20200;-81
2023/06/21 09:28:35;;;;;;;7.68;5.60;;;;;;;;;;4994261;28;20216;-81
2023/06/21 09:31:02;;;;;;;7.82;5.53;;;;;;;;;;4994055;28;20221;-82
2023/06/21 09:33:29;;;;;;;6.32;5.45;;;;;;;;;;4994533;28;20234;-81
2023/06/21 09:35:58;;;;;;;5.78;4.63;;;;;;;;;;4990807;28;20240;-82
2023/06/21 09:38:26;;;;;;;5.50;4.97;;;;;;;;;;4994437;28;20216;-81
2023/06/21 09:40:53;;;;;;;4.50;4.10;;;;;;;;;;4994013;28;20204;-81
2023/06/21 09:43:21;;;;;;;6.05;4.70;;;;;;;;;;4992574;28;20232;-81
2023/06/21 09:46:02;;;;;;;5.35;4.63;;;;;;;;;;4993677;28;20208;-80
2023/06/21 09:48:31;;;;;;;4.80;4.40;;;;;;;;;;4993754;28;20516;-81
2023/06/21 09:51:02;;;;;;;5.30;4.60;;;;;;;;;;4993308;28;20219;-81
2023/06/21 09:53:29;;;;;;;6.53;4.80;;;;;;;;;;4993336;28;20242;-82
2023/06/21 09:55:57;;;;;;;6.60;4.43;;;;;;;;;;4994394;28;20744;-81
2023/06/21 09:58:24;;;;;;;6.03;4.22;;;;;;;;;;4993586;28;20404;-81
2023/06/21 10:00:51;;;;;;;4.90;4.40;;;;;;;;;;4991171;28;20218;-82
2023/06/21 10:03:22;;;;;;;5.28;4.38;;;;;;;;;;4993726;28;20236;-81
2023/06/21 10:05:55;;;;;;;4.88;4.30;;;;;;;;;;4993691;28;20553;-82
2023/06/21 10:08:27;;;;;;;4.38;3.97;;;;;;;;;;4993270;28;20220;-81
2023/06/21 10:10:54;;;;;;;4.72;4.20;;;;;;;;;;4992257;28;20616;-81
2023/06/21 10:13:28;;;;;;;4.55;4.15;;;;;;;;;;4992898;28;20709;-81
2023/06/21 10:15:55;;;;;;;5.03;4.50;;;;;;;;;;4993367;28;20204;-81
2023/06/21 10:18:23;;;;;;;5.07;4.57;;;;;;;;;;4993014;28;20232;-81
2023/06/21 10:20:53;;;;;;;6.07;4.78;;;;;;;;;;4993242;28;20208;-79
2023/06/21 10:23:21;;;;;;;4.90;4.38;;;;;;;;;;4993040;28;20224;-79
2023/06/21 10:25:51;;;;;;;8.13;4.95;;;;;;;;;;4992907;28;20204;-78
2023/06/21 10:28:19;;;;;;;4.35;3.95;;;;;;;;;;4992580;28;20232;-80
2023/06/21 10:30:46;;;;;;;5.32;3.92;;;;;;;;;;4992948;28;20239;-80
2023/06/21 10:33:17;;;;;;;4.47;3.75;;;;;;;;;;4993098;28;20220;-80
2023/06/21 10:35:47;;;;;;;4.35;3.50;;;;;;;;;;4992570;28;20658;-80
2023/06/21 10:38:19;;;;;;;4.35;3.42;;;;;;;;;;4993105;28;20204;-80
2023/06/21 10:40:47;;;;;;;3.83;3.20;;;;;;;;;;4985481;28;20312;-80
2023/06/21 10:43:15;;;;;;;4.18;3.78;;;;;;;;;;4993030;28;20234;-79
2023/06/21 10:45:43;;;;;;;4.65;3.88;;;;;;;;;;4992875;28;20235;-80
2023/06/21 10:48:12;;;;;;;4.03;3.63;;;;;;;;;;4993201;28;20227;-80
2023/06/21 10:50:40;;;;;;;4.00;3.65;;;;;;;;;;4992629;28;20238;-80
2023/06/21 10:53:09;;;;;;;4.28;3.28;;;;;;;;;;4994261;28;20240;-80
2023/06/21 10:55:39;;;;;;;4.93;3.95;;;;;;;;;;4984817;28;20231;-80
2023/06/21 10:58:09;;;;;;;4.00;3.60;;;;;;;;;;4992617;28;20351;-80
2023/06/21 11:00:37;;;;;;;4.10;3.58;;;;;;;;;;4985591;28;20236;-79
2023/06/21 11:03:04;;;;;;;13.68;3.53;;;;;;;;;;5008503;28;20227;-79
2023/06/21 11:05:31;;;;;;;4.38;3.72;;;;;;;;;;4993079;28;20243;-80
2023/06/21 11:07:59;;;;;;;3.95;3.45;;;;;;;;;;4992359;28;20729;-80
2023/06/21 11:10:31;;;;;;;4.30;3.90;;;;;;;;;;4989832;28;20290;-80
2023/06/21 11:12:58;;;;;;;3.97;3.58;;;;;;;;;;4991703;28;20693;-79
2023/06/21 11:15:26;;;;;;;4.00;3.55;;;;;;;;;;4991913;28;20237;-79
2023/06/21 11:18:05;;;;;;;4.47;4.07;;;;;;;;;;4991512;28;20296;-80
2023/06/21 11:20:33;;;;;;;3.67;3.38;;;;;;;;;;4991677;28;20235;-80
2023/06/21 11:23:00;;;;;;;4.60;4.20;;;;;;;;;;4992342;28;20224;-80
2023/06/21 11:25:28;;;;;;;4.45;4.05;;;;;;;;;;4991444;28;20706;-81
2023/06/21 11:28:13;;;;;;;5.10;4.30;;;;;;;;;;4991273;28;20228;-79
2023/06/21 11:30:41;;;;;;;4.75;4.35;;;;;;;;;;4983598;28;20235;-79
2023/06/21 11:33:20;;;;;;;5.90;4.10;;;;;;;;;;4991486;28;20246;-79
2023/06/21 11:35:51;;;;;;;4.63;4.20;;;;;;;;;;4991213;28;20242;-80
2023/06/21 11:38:18;;;;;;;5.45;4.30;;;;;;;;;;4986568;28;20231;-79
2023/06/21 11:40:45;;;;;;;4.30;3.90;;;;;;;;;;4987140;28;20239;-79
2023/06/21 11:43:18;;;;;;;5.15;4.40;;;;;;;;;;4988930;28;20291;-79
2023/06/21 11:45:55;;;;;;;4.38;3.97;;;;;;;;;;4991552;28;20232;-79
2023/06/21 11:48:26;;;;;;;4.38;3.90;;;;;;;;;;4991778;28;20220;-79
2023/06/21 11:50:55;;;;;;;6.75;3.72;;;;;;;;;;4991476;28;20212;-79
2023/06/21 11:53:23;;;;;;;4.07;3.70;;;;;;;;;;4991312;28;20240;-79
2023/06/21 11:55:51;;;;;;;3.72;3.35;;;;;;;;;;4991419;28;20218;-79
2023/06/21 11:58:18;;;;;;;6.63;3.92;;;;;;;;;;4991404;28;20259;-79
2023/06/21 12:00:46;;;;;;;5.57;4.50;;;;;;;;;;4991663;28;20256;-80
2023/06/21 12:03:13;;;;;;;5.88;4.20;;;;;;;;;;4992033;28;20231;-80
2023/06/21 12:05:49;;;;;;;4.50;3.90;;;;;;;;;;4982113;28;20235;-79
2023/06/21 12:08:16;;;;;;;7.18;3.60;;;;;;;;;;4992131;28;20259;-80
2023/06/21 12:10:43;;;;;;;4.28;3.55;;;;;;;;;;4990754;28;20881;-80
2023/06/21 12:13:13;;;;;;;4.45;3.65;;;;;;;;;;4991242;28;20315;-81
2023/06/21 12:15:40;;;;;;;4.40;4.00;;;;;;;;;;4983580;28;20315;-79
2023/06/21 12:18:10;;;;;;;4.68;3.60;;;;;;;;;;4990544;28;20693;-80
2023/06/21 12:20:38;;;;;;;4.47;4.07;;;;;;;;;;4991237;28;20314;-80
2023/06/21 12:23:08;;;;;;;4.97;4.05;;;;;;;;;;4991794;28;20239;-80
2023/06/21 12:25:42;;;;;;;5.38;4.35;;;;;;;;;;4990921;28;20243;-80
2023/06/21 12:28:09;;;;;;;5.28;3.65;;;;;;;;;;4991559;28;20235;-80
2023/06/21 12:30:46;;;;;;;4.85;4.07;;;;;;;;;;4990833;28;20242;-79
2023/06/21 12:33:13;;;;;;;5.25;4.07;;;;;;;;;;4991645;28;20223;-80
2023/06/21 12:35:40;;;;;;;4.85;4.00;;;;;;;;;;4990929;28;20395;-81
2023/06/21 12:38:13;;;;;;;5.10;3.83;;;;;;;;;;4991499;28;20208;-81
2023/06/21 12:40:51;;;;;;;4.47;4.07;;;;;;;;;;4990851;28;20312;-80
2023/06/21 12:43:31;;;;;;;4.97;4.30;;;;;;;;;;4990879;28;20236;-80
2023/06/21 12:45:58;;;;;;;4.43;4.03;;;;;;;;;;4991249;28;20224;-80
2023/06/21 12:48:25;;;;;;;4.40;4.00;;;;;;;;;;4990784;28;20251;-80
2023/06/21 12:50:55;;;;;;;5.30;4.05;;;;;;;;;;4990447;28;20627;-80
2023/06/21 12:53:25;;;;;;;6.53;4.60;;;;;;;;;;4991171;28;20240;-80
2023/06/21 12:55:52;;;;;;;5.28;3.75;;;;;;;;;;4982904;28;20275;-80
2023/06/21 12:58:20;;;;;;;4.07;3.72;;;;;;;;;;4990608;28;20678;-79
2023/06/21 13:00:47;;;;;;;5.35;4.00;;;;;;;;;;4991226;28;20328;-80
2023/06/21 13:03:15;;;;;;;6.35;4.00;;;;;;;;;;4991094;28;20360;-79
2023/06/21 13:05:42;;;;;;;4.22;3.85;;;;;;;;;;4990688;28;20255;-80
2023/06/21 13:08:09;;;;;;;4.65;3.75;;;;;;;;;;4991229;28;20266;-80
2023/06/21 13:10:37;;;;;;;4.90;4.40;;;;;;;;;;4990573;28;20232;-80
2023/06/21 13:13:04;;;;;;;4.18;3.78;;;;;;;;;;4988109;28;20587;-80
2023/06/21 13:15:32;;;;;;;5.32;4.20;;;;;;;;;;4989899;28;20254;-79
2023/06/21 13:17:59;;;;;;;4.38;3.97;;;;;;;;;;4993651;28;20197;-79
2023/06/21 13:20:26;;;;;;;4.20;3.80;;;;;;;;;;4993386;28;20236;-79
2023/06/21 13:22:54;;;;;;;5.70;3.60;;;;;;;;;;4994051;28;20232;-80
2023/06/21 13:25:21;;;;;;;5.38;4.50;;;;;;;;;;4993937;28;20264;-80
2023/06/21 13:27:49;;;;;;;4.65;4.05;;;;;;;;;;4994207;28;20228;-80
2023/06/21 13:30:16;;;;;;;4.00;3.60;;;;;;;;;;4993924;28;20230;-80
2023/06/21 13:32:44;;;;;;;5.25;4.32;;;;;;;;;;4994238;28;20235;-79
2023/06/21 13:35:12;;;;;;;6.03;3.75;;;;;;;;;;4993824;28;20239;-79
2023/06/21 13:37:39;;;;;;;3.83;3.40;;;;;;;;;;4994071;28;20219;-80
2023/06/21 13:40:08;;;;;;;4.82;3.78;;;;;;;;;;4988667;28;20254;-80
2023/06/21 13:42:35;;;;;;;4.25;3.85;;;;;;;;;;4993763;28;20208;-80
2023/06/21 13:45:04;;;;;;;5.88;4.10;;;;;;;;;;4993648;28;20240;-80
2023/06/21 13:47:31;;;;;;;4.05;3.65;;;;;;;;;;4993790;28;20583;-80
2023/06/21 13:50:00;;;;;;;4.22;3.75;;;;;;;;;;4988569;28;20236;-80
2023/06/21 13:52:31;;;;;;;5.20;4.15;;;;;;;;;;4991261;28;20211;-80
2023/06/21 13:54:59;;;;;;;5.80;4.00;;;;;;;;;;4993187;28;20278;-80
2023/06/21 13:57:26;;;;;;;4.38;3.97;;;;;;;;;;4993404;28;20215;-79
2023/06/21 13:59:53;;;;;;;5.10;4.50;;;;;;;;;;4993342;28;20239;-80
2023/06/21 14:02:22;;;;;;;6.32;4.00;;;;;;;;;;4993678;28;20259;-80
2023/06/21 14:04:50;;;;;;;4.20;3.80;;;;;;;;;;4985805;28;20395;-80
2023/06/21 14:07:17;;;;;;;4.30;3.90;;;;;;;;;;4992595;28;20204;-88
2023/06/21 14:09:45;;;;;;;5.18;4.00;;;;;;;;;;4992825;28;20608;-84
2023/06/21 14:12:12;;;;;;;4.20;3.83;;;;;;;;;;4993425;28;20254;-83
2023/06/21 14:14:39;;;;;;;4.18;3.60;;;;;;;;;;4992909;28;20243;-83
2023/06/21 14:17:07;;;;;;;4.20;3.85;;;;;;;;;;4993641;28;20208;-82
2023/06/21 14:19:36;;;;;;;4.50;4.10;;;;;;;;;;4992294;28;20732;-84
2023/06/21 14:22:03;;;;;;;4.45;4.05;;;;;;;;;;4994117;28;20212;-87
2023/06/21 14:24:30;;;;;;;4.13;3.70;;;;;;;;;;4993185;28;20243;-82
2023/06/21 14:26:57;;;;;;;4.57;4.03;;;;;;;;;;4993633;28;20244;-84
2023/06/21 14:29:24;;;;;;;4.03;3.55;;;;;;;;;;4991867;28;20243;-82
2023/06/21 14:31:51;;;;;;;4.63;3.92;;;;;;;;;;4993336;28;20219;-83
2023/06/21 14:34:18;;;;;;;4.07;3.67;;;;;;;;;;4988834;28;20243;-83
2023/06/21 14:36:47;;;;;;;4.60;4.18;;;;;;;;;;4992126;28;20231;-82
2023/06/21 14:39:14;;;;;;;4.60;4.15;;;;;;;;;;4992542;28;20236;-82
2023/06/21 14:41:41;;;;;;;4.30;3.83;;;;;;;;;;4993065;28;20223;-83
2023/06/21 14:44:08;;;;;;;5.25;4.10;;;;;;;;;;4991774;28;20251;-83